createdAt,value
2022-08-10T00:02:11.894Z,22.20
2022-08-10T00:04:39.143Z,22.10
2022-08-10T00:07:06.882Z,22.10
2022-08-10T00:09:34.606Z,22.00
2022-08-10T00:12:21.626Z,22.00
2022-08-10T00:14:49.385Z,21.90
2022-08-10T00:17:16.654Z,21.90
2022-08-10T00:20:02.632Z,21.80
2022-08-10T00:22:31.493Z,21.80
2022-08-10T00:24:59.198Z,21.80
2022-08-10T00:28:01.955Z,21.70
2022-08-10T00:30:14.805Z,21.70
2022-08-10T00:32:42.091Z,21.70
2022-08-10T00:35:09.636Z,21.70
2022-08-10T00:37:39.462Z,21.70
2022-08-10T00:40:09.863Z,21.70
2022-08-10T00:42:37.239Z,21.60
2022-08-10T00:45:07.520Z,21.60
2022-08-10T00:47:37.135Z,21.50
2022-08-10T00:50:07.227Z,21.50
2022-08-10T00:52:38.872Z,21.40
2022-08-10T00:55:06.631Z,21.40
2022-08-10T00:57:35.160Z,21.40
2022-08-10T01:00:05.118Z,21.30
2022-08-10T01:02:33.771Z,21.30
2022-08-10T01:05:04.918Z,21.20
2022-08-10T01:07:43.964Z,21.10
2022-08-10T01:10:37.665Z,21.10
2022-08-10T01:13:25.971Z,20.90
2022-08-10T01:15:55.658Z,20.90
2022-08-10T01:18:47.519Z,20.90
2022-08-10T01:21:41.921Z,20.90
2022-08-10T01:24:42.545Z,20.90
2022-08-10T01:27:48.588Z,21.00
2022-08-10T01:30:16.204Z,20.90
2022-08-10T01:33:03.365Z,20.80
2022-08-10T01:36:02.934Z,20.80
2022-08-10T01:38:34.637Z,20.70
2022-08-10T01:41:12.326Z,20.80
2022-08-10T01:43:44.655Z,20.70
2022-08-10T01:46:14.737Z,20.70
2022-08-10T01:48:55.428Z,20.60
2022-08-10T01:51:45.908Z,20.50
2022-08-10T01:54:15.930Z,20.50
2022-08-10T01:56:50.407Z,20.60
2022-08-10T01:59:34.908Z,20.60
2022-08-10T02:02:05.709Z,20.50
2022-08-10T02:04:36.003Z,20.50
2022-08-10T02:07:04.641Z,20.40
2022-08-10T02:09:40.343Z,20.30
2022-08-10T02:12:13.865Z,20.20
2022-08-10T02:14:45.354Z,20.30
2022-08-10T02:17:59.747Z,20.30
2022-08-10T02:20:15.209Z,20.30
2022-08-10T02:22:45.386Z,20.20
2022-08-10T02:25:40.612Z,20.20
2022-08-10T02:28:06.448Z,20.10
2022-08-10T02:30:34.258Z,20.10
2022-08-10T02:33:04.742Z,20.10
2022-08-10T02:35:54.060Z,20.00
2022-08-10T02:38:59.118Z,20.00
2022-08-10T02:45:13.194Z,19.90
2022-08-10T02:45:21.242Z,20.00
2022-08-10T02:47:46.601Z,19.90
2022-08-10T02:50:36.678Z,19.90
2022-08-10T02:53:54.899Z,19.80
2022-08-10T02:56:09.840Z,19.80
2022-08-10T02:58:45.877Z,19.70
2022-08-10T03:01:20.070Z,19.70
2022-08-10T03:04:17.165Z,19.70
2022-08-10T03:06:53.844Z,19.50
2022-08-10T03:09:23.573Z,19.60
2022-08-10T03:12:34.857Z,19.60
2022-08-10T03:14:43.533Z,19.70
2022-08-10T03:17:12.578Z,19.60
2022-08-10T03:20:33.367Z,19.60
2022-08-10T03:22:32.150Z,19.50
2022-08-10T03:25:01.025Z,19.50
2022-08-10T03:27:30.515Z,19.50
2022-08-10T03:30:28.366Z,19.40
2022-08-10T03:32:51.594Z,19.40
2022-08-10T03:35:22.226Z,19.40
2022-08-10T03:37:49.567Z,19.40
2022-08-10T03:40:44.846Z,19.30
2022-08-10T03:43:21.377Z,19.30
2022-08-10T03:45:56.109Z,19.10
2022-08-10T03:48:32.332Z,19.20
2022-08-10T03:51:15.422Z,19.20
2022-08-10T03:54:05.427Z,19.20
2022-08-10T03:56:32.826Z,19.20
2022-08-10T03:59:01.572Z,19.20
2022-08-10T04:02:44.991Z,19.20
2022-08-10T04:04:22.872Z,19.10
2022-08-10T04:06:55.696Z,19.00
2022-08-10T04:09:42.801Z,19.00
2022-08-10T04:12:16.021Z,19.00
2022-08-10T04:14:49.943Z,19.00
2022-08-10T04:17:59.394Z,18.90
2022-08-10T04:20:16.313Z,18.90
2022-08-10T04:22:46.925Z,18.90
2022-08-10T04:25:15.980Z,18.90
2022-08-10T04:27:43.873Z,18.90
2022-08-10T04:30:13.699Z,18.90
2022-08-10T04:32:45.046Z,18.80
2022-08-10T04:35:15.415Z,18.90
2022-08-10T04:37:47.198Z,18.80
2022-08-10T04:40:25.302Z,18.80
2022-08-10T04:43:11.893Z,18.90
2022-08-10T04:45:48.328Z,18.80
2022-08-10T04:48:42.057Z,18.80
2022-08-10T04:51:21.035Z,18.90
2022-08-10T04:54:03.846Z,18.90
2022-08-10T04:56:36.134Z,18.70
2022-08-10T04:59:06.599Z,18.70
2022-08-10T05:02:22.611Z,18.70
2022-08-10T05:04:35.872Z,18.80
2022-08-10T05:07:18.227Z,18.90
2022-08-10T05:10:02.698Z,18.80
2022-08-10T05:12:36.816Z,18.90
2022-08-10T05:15:13.150Z,18.90
2022-08-10T05:18:08.306Z,18.90
2022-08-10T05:20:32.262Z,18.90
2022-08-10T05:22:59.535Z,19.00
2022-08-10T05:25:26.812Z,19.00
2022-08-10T05:27:57.429Z,18.90
2022-08-10T05:30:25.127Z,18.90
2022-08-10T05:32:56.462Z,19.00
2022-08-10T05:35:28.278Z,19.10
2022-08-10T05:38:10.295Z,19.20
2022-08-10T05:40:47.232Z,19.30
2022-08-10T05:43:24.088Z,19.40
2022-08-10T05:46:16.659Z,19.50
2022-08-10T05:48:59.473Z,19.50
2022-08-10T05:51:31.458Z,19.60
2022-08-10T05:54:06.071Z,19.60
2022-08-10T05:56:54.833Z,19.60
2022-08-10T06:00:29.527Z,19.60
2022-08-10T06:02:41.705Z,19.50
2022-08-10T06:05:14.380Z,19.60
2022-08-10T06:07:47.153Z,19.40
2022-08-10T06:10:30.001Z,19.30
2022-08-10T06:13:30.025Z,19.40
2022-08-10T06:16:06.761Z,19.30
2022-08-10T06:18:35.560Z,19.40
2022-08-10T06:21:09.615Z,19.60
2022-08-10T06:23:38.196Z,19.70
2022-08-10T06:26:13.824Z,20.00
2022-08-10T06:29:03.380Z,20.30
2022-08-10T06:31:48.548Z,20.50
2022-08-10T06:34:26.075Z,20.70
2022-08-10T06:36:55.243Z,21.00
2022-08-10T06:39:34.073Z,21.30
2022-08-10T06:42:24.376Z,21.50
2022-08-10T06:45:12.214Z,21.50
2022-08-10T06:47:41.867Z,21.60
2022-08-10T06:50:23.989Z,21.80
2022-08-10T06:53:17.675Z,21.90
2022-08-10T06:56:01.888Z,22.20
2022-08-10T06:58:35.956Z,22.70
2022-08-10T07:01:07.002Z,22.80
2022-08-10T07:03:38.597Z,23.10
2022-08-10T07:06:07.798Z,23.00
2022-08-10T07:08:36.843Z,23.00
2022-08-10T07:11:11.856Z,23.20
2022-08-10T07:14:15.598Z,23.60
2022-08-10T07:16:31.747Z,24.00
2022-08-10T07:19:01.966Z,24.10
2022-08-10T07:21:31.455Z,24.40
2022-08-10T07:24:03.833Z,24.50
2022-08-10T07:26:32.851Z,24.70
2022-08-10T07:29:01.163Z,25.00
2022-08-10T07:31:32.983Z,25.20
2022-08-10T07:34:28.902Z,25.60
2022-08-10T07:37:08.928Z,25.90
2022-08-10T07:40:01.974Z,25.90
2022-08-10T07:42:31.441Z,26.00
2022-08-10T07:44:59.897Z,26.00
2022-08-10T07:47:52.905Z,26.30
2022-08-10T07:50:27.279Z,26.60
2022-08-10T07:52:59.890Z,27.00
2022-08-10T07:56:03.752Z,27.20
2022-08-10T07:58:19.011Z,27.90
2022-08-10T08:00:48.192Z,28.40
2022-08-10T08:03:16.873Z,28.70
2022-08-10T08:05:57.425Z,28.80
2022-08-10T08:08:28.402Z,29.40
2022-08-10T08:10:58.324Z,29.60
2022-08-10T08:13:28.150Z,30.00
2022-08-10T08:16:18.180Z,30.40
2022-08-10T08:19:16.246Z,30.60
2022-08-10T08:24:05.428Z,30.70
2022-08-10T08:24:33.942Z,30.60
2022-08-10T08:27:03.451Z,30.90
2022-08-10T08:29:35.152Z,31.20
2022-08-10T08:32:06.875Z,31.40
2022-08-10T08:34:37.939Z,31.60
2022-08-10T08:37:09.041Z,31.70
2022-08-10T08:39:37.294Z,32.00
2022-08-10T08:42:22.899Z,32.10
2022-08-10T08:45:27.614Z,31.90
2022-08-10T08:48:32.152Z,32.50
2022-08-10T08:51:17.143Z,32.90
2022-08-10T08:54:28.931Z,33.20
2022-08-10T08:57:13.135Z,33.80
2022-08-10T09:00:17.298Z,33.90
2022-08-10T09:03:06.360Z,33.80
2022-08-10T09:06:01.210Z,34.00
2022-08-10T09:09:04.743Z,34.20
2022-08-10T09:11:56.953Z,34.60
2022-08-10T09:14:45.950Z,34.60
2022-08-10T09:17:31.153Z,34.40
2022-08-10T09:20:13.951Z,34.10
2022-08-10T09:22:57.242Z,34.30
2022-08-10T09:25:37.096Z,34.30
2022-08-10T09:28:10.101Z,34.20
2022-08-10T09:30:38.642Z,34.70
2022-08-10T09:36:25.389Z,35.10
2022-08-10T09:36:33.025Z,34.90
2022-08-10T09:40:56.818Z,35.40
2022-08-10T09:42:28.585Z,35.80
2022-08-10T09:45:16.595Z,35.80
2022-08-10T09:48:12.824Z,35.80
2022-08-10T09:51:45.251Z,36.10
2022-08-10T09:54:20.578Z,36.00
2022-08-10T09:57:43.057Z,35.90
2022-08-10T10:00:12.866Z,36.30
2022-08-10T10:02:49.327Z,36.90
2022-08-10T10:05:31.070Z,36.40
2022-08-10T10:08:09.787Z,36.30
2022-08-10T10:10:53.555Z,36.30
2022-08-10T10:13:42.240Z,36.30
2022-08-10T10:16:42.019Z,36.10
2022-08-10T10:19:40.946Z,36.50
2022-08-10T10:22:14.524Z,37.30
2022-08-10T10:24:49.808Z,37.20
2022-08-10T10:27:33.104Z,36.80
2022-08-10T10:30:06.383Z,36.90
2022-08-10T10:32:37.471Z,37.10
2022-08-10T10:35:47.779Z,37.10
2022-08-10T10:38:18.818Z,36.50
2022-08-10T10:40:55.439Z,36.80
2022-08-10T10:43:32.488Z,37.40
2022-08-10T10:46:23.002Z,37.10
2022-08-10T10:48:56.505Z,37.20
2022-08-10T10:52:00.066Z,37.70
2022-08-10T10:54:56.183Z,37.50
2022-08-10T10:57:59.107Z,37.50
2022-08-10T11:00:22.045Z,38.00
2022-08-10T11:03:07.744Z,37.70
2022-08-10T11:06:02.369Z,37.60
2022-08-10T11:08:36.283Z,37.70
2022-08-10T11:12:00.730Z,38.10
2022-08-10T11:14:29.359Z,38.10
2022-08-10T11:17:11.332Z,37.20
2022-08-10T11:20:09.764Z,37.00
2022-08-10T11:23:05.188Z,36.90
2022-08-10T11:25:42.469Z,36.90
2022-08-10T11:28:40.933Z,37.10
2022-08-10T11:31:37.785Z,36.90
2022-08-10T11:34:46.889Z,36.90
2022-08-10T11:38:31.711Z,37.10
2022-08-10T11:40:29.990Z,36.90
2022-08-10T11:43:13.598Z,37.20
2022-08-10T11:45:55.579Z,36.90
2022-08-10T11:48:56.908Z,36.80
2022-08-10T11:51:36.729Z,37.20
2022-08-10T11:54:47.125Z,37.10
2022-08-10T11:57:19.791Z,36.90
2022-08-10T11:59:58.407Z,36.90
2022-08-10T12:02:33.119Z,37.00
2022-08-10T12:05:51.570Z,36.90
2022-08-10T12:10:04.848Z,37.00
2022-08-10T12:11:28.001Z,36.80
2022-08-10T12:14:21.430Z,36.80
2022-08-10T12:16:58.730Z,37.60
2022-08-10T12:19:58.605Z,37.60
2022-08-10T12:22:23.141Z,37.30
2022-08-10T12:25:01.879Z,36.80
2022-08-10T12:27:41.771Z,36.40
2022-08-10T12:30:17.653Z,36.60
2022-08-10T12:33:14.328Z,36.60
2022-08-10T12:36:22.365Z,36.80
2022-08-10T12:39:04.517Z,37.10
2022-08-10T12:41:43.646Z,37.30
2022-08-10T12:44:41.151Z,37.40
2022-08-10T12:47:27.814Z,37.40
2022-08-10T12:50:23.851Z,36.80
2022-08-10T12:53:25.611Z,36.40
2022-08-10T12:55:53.538Z,36.70
2022-08-10T12:59:00.247Z,37.10
2022-08-10T13:01:18.553Z,36.60
2022-08-10T13:04:21.297Z,36.40
2022-08-10T13:06:41.746Z,36.20
2022-08-10T13:09:09.626Z,35.80
2022-08-10T13:12:44.562Z,35.60
2022-08-10T13:14:56.112Z,36.00
2022-08-10T13:17:39.535Z,36.00
2022-08-10T13:20:31.048Z,36.20
2022-08-10T13:23:01.374Z,35.90
2022-08-10T13:25:50.827Z,35.70
2022-08-10T13:28:35.789Z,35.60
2022-08-10T13:31:19.473Z,35.40
2022-08-10T13:34:39.175Z,35.50
2022-08-10T13:36:42.876Z,35.40
2022-08-10T13:39:15.558Z,35.10
2022-08-10T13:41:45.651Z,35.00
2022-08-10T13:44:17.637Z,35.00
2022-08-10T13:46:52.420Z,34.80
2022-08-10T13:49:21.807Z,35.00
2022-08-10T13:51:54.372Z,34.90
2022-08-10T13:54:28.011Z,35.10
2022-08-10T13:56:56.716Z,35.20
2022-08-10T14:00:32.926Z,35.20
2022-08-10T14:02:26.986Z,35.20
2022-08-10T14:04:56.227Z,35.30
2022-08-10T14:07:25.312Z,35.30
2022-08-10T14:10:05.449Z,35.30
2022-08-10T14:12:35.741Z,35.10
2022-08-10T14:15:07.056Z,35.00
2022-08-10T14:17:44.577Z,34.80
2022-08-10T14:20:19.293Z,34.90
2022-08-10T14:22:49.013Z,35.10
2022-08-10T14:25:16.484Z,34.80
2022-08-10T14:28:03.334Z,34.90
2022-08-10T14:30:33.398Z,35.10
2022-08-10T14:33:04.950Z,34.80
2022-08-10T14:36:22.201Z,34.80
2022-08-10T14:38:36.613Z,34.90
2022-08-10T14:41:04.848Z,34.80
2022-08-10T14:43:40.838Z,34.70
2022-08-10T14:46:11.437Z,34.30
2022-08-10T14:48:48.379Z,34.20
2022-08-10T14:51:19.447Z,34.00
2022-08-10T14:53:54.309Z,33.80
2022-08-10T14:56:28.900Z,33.70
2022-08-10T14:59:06.819Z,33.70
2022-08-10T15:02:38.441Z,33.70
2022-08-10T15:04:28.465Z,33.80
2022-08-10T15:07:12.255Z,33.80
2022-08-10T15:10:01.135Z,33.60
2022-08-10T15:12:33.313Z,33.60
2022-08-10T15:15:03.934Z,33.60
2022-08-10T15:17:39.444Z,33.40
2022-08-10T15:20:24.988Z,33.50
2022-08-10T15:22:59.471Z,33.40
2022-08-10T15:25:31.391Z,33.00
2022-08-10T15:28:10.314Z,32.80
2022-08-10T15:30:52.381Z,32.70
2022-08-10T15:34:05.498Z,32.70
2022-08-10T15:36:58.786Z,32.70
2022-08-10T15:40:25.088Z,32.80
2022-08-10T15:43:25.386Z,32.90
2022-08-10T15:46:14.977Z,32.80
2022-08-10T15:48:51.399Z,32.70
2022-08-10T15:51:28.023Z,32.70
2022-08-10T15:54:12.092Z,32.70
2022-08-10T15:56:48.554Z,32.50
2022-08-10T15:59:30.136Z,32.30
2022-08-10T16:02:15.815Z,32.10
2022-08-10T16:05:11.285Z,31.90
2022-08-10T16:07:49.110Z,31.70
2022-08-10T16:10:28.896Z,31.60
2022-08-10T16:13:50.378Z,31.70
2022-08-10T16:16:02.946Z,31.70
2022-08-10T16:18:34.687Z,31.50
2022-08-10T16:21:05.569Z,31.40
2022-08-10T16:23:37.105Z,31.30
2022-08-10T16:26:14.701Z,31.50
2022-08-10T16:28:49.981Z,31.40
2022-08-10T16:31:21.421Z,31.40
2022-08-10T16:33:55.097Z,31.40
2022-08-10T16:36:50.642Z,31.30
2022-08-10T16:39:58.134Z,31.20
2022-08-10T16:42:28.998Z,31.20
2022-08-10T16:45:08.097Z,31.20
2022-08-10T16:47:39.268Z,31.10
2022-08-10T16:50:10.061Z,31.10
2022-08-10T16:52:39.337Z,31.10
2022-08-10T16:55:24.283Z,30.80
2022-08-10T16:58:14.281Z,30.80
2022-08-10T17:00:44.497Z,30.70
2022-08-10T17:03:22.382Z,30.50
2022-08-10T17:06:10.987Z,30.50
2022-08-10T17:08:49.078Z,30.50
2022-08-10T17:11:20.906Z,30.60
2022-08-10T17:13:48.835Z,30.60
2022-08-10T17:16:21.710Z,30.70
2022-08-10T17:18:50.329Z,30.70
2022-08-10T17:21:24.428Z,30.70
2022-08-10T17:23:57.195Z,30.70
2022-08-10T17:26:37.265Z,30.50
2022-08-10T17:29:59.010Z,30.30
2022-08-10T17:32:51.875Z,30.40
2022-08-10T17:35:26.129Z,30.50
2022-08-10T17:38:25.191Z,30.40
2022-08-10T17:41:03.727Z,30.30
2022-08-10T17:44:02.126Z,30.20
2022-08-10T17:46:26.006Z,30.20
2022-08-10T17:48:57.361Z,30.00
2022-08-10T17:51:30.885Z,30.10
2022-08-10T17:54:00.626Z,30.10
2022-08-10T17:56:34.057Z,30.00
2022-08-10T17:59:17.532Z,30.00
2022-08-10T18:01:59.097Z,29.80
2022-08-10T18:04:42.167Z,29.80
2022-08-10T18:07:11.299Z,29.70
2022-08-10T18:09:50.873Z,29.70
2022-08-10T18:12:36.297Z,29.70
2022-08-10T18:15:13.387Z,29.70
2022-08-10T18:17:49.430Z,29.60
2022-08-10T18:20:20.256Z,29.60
2022-08-10T18:22:56.137Z,29.50
2022-08-10T18:25:28.446Z,29.50
2022-08-10T18:28:01.156Z,29.30
2022-08-10T18:30:45.950Z,29.40
2022-08-10T18:33:14.747Z,29.30
2022-08-10T18:35:44.962Z,29.40
2022-08-10T18:38:14.737Z,29.40
2022-08-10T18:40:45.048Z,29.30
2022-08-10T18:44:10.709Z,29.20
2022-08-10T18:46:09.736Z,29.10
2022-08-10T18:48:46.927Z,28.90
2022-08-10T18:51:19.317Z,28.80
2022-08-10T18:54:02.039Z,28.80
2022-08-10T18:56:29.269Z,28.80
2022-08-10T18:59:03.042Z,28.90
2022-08-10T19:02:16.848Z,28.80
2022-08-10T19:04:47.235Z,28.80
2022-08-10T19:07:30.006Z,28.90
2022-08-10T19:10:29.260Z,28.80
2022-08-10T19:13:07.040Z,28.70
2022-08-10T19:15:56.424Z,28.70
2022-08-10T19:18:46.672Z,28.70
2022-08-10T19:21:23.229Z,28.70
2022-08-10T19:24:20.030Z,28.50
2022-08-10T19:27:14.290Z,28.50
2022-08-10T19:30:10.142Z,28.50
2022-08-10T19:33:09.267Z,28.50
2022-08-10T19:36:04.579Z,28.40
2022-08-10T19:38:51.816Z,28.30
2022-08-10T19:41:41.880Z,28.20
2022-08-10T19:44:26.310Z,28.20
2022-08-10T19:47:18.628Z,28.10
2022-08-10T19:50:03.599Z,28.00
2022-08-10T19:52:54.402Z,28.00
2022-08-10T19:55:50.661Z,27.90
2022-08-10T19:58:46.599Z,27.80
2022-08-10T20:01:18.052Z,27.70
2022-08-10T20:04:05.102Z,27.60
2022-08-10T20:06:48.653Z,27.30
2022-08-10T20:09:26.802Z,27.30
2022-08-10T20:11:59.238Z,27.30
2022-08-10T20:14:35.769Z,27.30
2022-08-10T20:17:16.493Z,27.10
2022-08-10T20:19:56.144Z,27.10
2022-08-10T20:22:28.979Z,27.00
2022-08-10T20:25:13.868Z,26.90
2022-08-10T20:28:00.002Z,26.80
2022-08-10T20:30:36.346Z,26.80
2022-08-10T20:33:23.229Z,26.70
2022-08-10T20:36:24.997Z,26.60
2022-08-10T20:38:58.257Z,26.50
2022-08-10T20:41:32.102Z,26.40
2022-08-10T20:44:27.264Z,26.50
2022-08-10T20:47:18.312Z,26.30
2022-08-10T20:50:19.662Z,26.20
2022-08-10T20:52:52.243Z,26.10
2022-08-10T20:55:23.152Z,26.00
2022-08-10T20:58:43.170Z,25.90
2022-08-10T21:02:05.995Z,25.80
2022-08-10T21:04:49.438Z,25.80
2022-08-10T21:08:01.797Z,25.80
2022-08-10T21:10:49.041Z,25.60
2022-08-10T21:13:41.299Z,25.50
2022-08-10T21:16:39.687Z,25.40
2022-08-10T21:19:27.978Z,25.40
2022-08-10T21:22:08.679Z,25.30
2022-08-10T21:24:45.791Z,25.10
2022-08-10T21:27:28.255Z,25.10
2022-08-10T21:30:10.210Z,25.00
2022-08-10T21:33:00.731Z,24.90
2022-08-10T21:35:45.248Z,24.80
2022-08-10T21:38:28.736Z,24.80
2022-08-10T21:41:57.395Z,24.80
2022-08-10T21:45:08.218Z,24.70
2022-08-10T21:48:17.259Z,24.70
2022-08-10T21:51:24.243Z,24.60
2022-08-10T21:54:30.613Z,24.50
2022-08-10T21:57:26.651Z,24.50
2022-08-10T22:00:29.579Z,24.40
2022-08-10T22:03:18.481Z,24.30
2022-08-10T22:06:16.621Z,24.30
2022-08-10T22:09:11.474Z,24.30
2022-08-10T22:12:02.466Z,24.10
2022-08-10T22:14:52.691Z,24.10
2022-08-10T22:18:01.016Z,24.10
2022-08-10T22:20:53.320Z,24.00
2022-08-10T22:24:18.859Z,23.90
2022-08-10T22:27:46.447Z,23.90
2022-08-10T22:30:35.869Z,23.80
2022-08-10T22:33:36.448Z,23.80
2022-08-10T22:37:23.075Z,23.60
2022-08-10T22:40:29.451Z,23.60
2022-08-10T22:43:35.393Z,23.50
2022-08-10T22:46:28.209Z,23.50
2022-08-10T22:49:01.725Z,23.50
2022-08-10T22:51:58.611Z,23.40
2022-08-10T22:54:57.684Z,23.30
2022-08-10T22:57:44.034Z,23.30
2022-08-10T23:00:17.040Z,23.40
2022-08-10T23:03:21.623Z,23.30
2022-08-10T23:05:57.072Z,23.20
2022-08-10T23:08:40.812Z,23.20
2022-08-10T23:11:11.734Z,23.10
2022-08-10T23:13:46.485Z,23.10
2022-08-10T23:16:40.941Z,23.20
2022-08-10T23:19:25.532Z,23.00
2022-08-10T23:22:04.090Z,22.90
2022-08-10T23:24:44.328Z,23.00
2022-08-10T23:27:37.747Z,22.90
2022-08-10T23:30:10.260Z,22.90
2022-08-10T23:32:47.496Z,22.90
2022-08-10T23:36:13.110Z,23.00
2022-08-10T23:38:11.227Z,22.90
2022-08-10T23:40:45.584Z,22.80
2022-08-10T23:43:46.819Z,22.80
2022-08-10T23:46:18.148Z,22.70
2022-08-10T23:48:49.497Z,22.70
2022-08-10T23:51:18.037Z,22.60
2022-08-10T23:53:50.724Z,22.60
2022-08-10T23:56:22.858Z,22.50
2022-08-10T23:58:54.640Z,22.50
